sensor_id;sensor_type;location;lat;lon;timestamp;P1;durP1;ratioP1;P2;durP2;ratioP2
12603;SDS011;6367;52.508;13.284;2022-11-20T00:01:25;12.67;;;9.53;;
12603;SDS011;6367;52.508;13.284;2022-11-20T00:03:55;11.83;;;9.27;;
12603;SDS011;6367;52.508;13.284;2022-11-20T00:06:22;14.53;;;9.60;;
12603;SDS011;6367;52.508;13.284;2022-11-20T00:08:49;12.77;;;9.13;;
12603;SDS011;6367;52.508;13.284;2022-11-20T00:11:16;11.37;;;9.23;;
12603;SDS011;6367;52.508;13.284;2022-11-20T00:13:44;11.13;;;9.00;;
12603;SDS011;6367;52.508;13.284;2022-11-20T00:16:12;14.80;;;8.90;;
12603;SDS011;6367;52.508;13.284;2022-11-20T00:18:39;10.37;;;9.17;;
12603;SDS011;6367;52.508;13.284;2022-11-20T00:21:07;9.13;;;8.20;;
12603;SDS011;6367;52.508;13.284;2022-11-20T00:23:38;12.17;;;9.63;;
12603;SDS011;6367;52.508;13.284;2022-11-20T00:26:09;11.50;;;8.53;;
12603;SDS011;6367;52.508;13.284;2022-11-20T00:28:37;11.70;;;9.63;;
12603;SDS011;6367;52.508;13.284;2022-11-20T00:31:13;12.53;;;9.20;;
12603;SDS011;6367;52.508;13.284;2022-11-20T00:33:41;11.53;;;8.63;;
12603;SDS011;6367;52.508;13.284;2022-11-20T00:36:11;11.90;;;9.37;;
12603;SDS011;6367;52.508;13.284;2022-11-20T00:38:39;14.93;;;8.60;;
12603;SDS011;6367;52.508;13.284;2022-11-20T00:41:08;12.50;;;8.60;;
12603;SDS011;6367;52.508;13.284;2022-11-20T00:43:35;10.70;;;9.00;;
12603;SDS011;6367;52.508;13.284;2022-11-20T00:46:23;11.93;;;8.63;;
12603;SDS011;6367;52.508;13.284;2022-11-20T00:48:48;13.20;;;9.43;;
12603;SDS011;6367;52.508;13.284;2022-11-20T00:51:14;11.83;;;9.20;;
12603;SDS011;6367;52.508;13.284;2022-11-20T00:53:42;10.67;;;8.70;;
12603;SDS011;6367;52.508;13.284;2022-11-20T00:56:12;11.80;;;8.37;;
12603;SDS011;6367;52.508;13.284;2022-11-20T00:58:40;14.90;;;9.33;;
12603;SDS011;6367;52.508;13.284;2022-11-20T01:01:07;13.23;;;9.50;;
12603;SDS011;6367;52.508;13.284;2022-11-20T01:03:41;18.07;;;10.20;;
12603;SDS011;6367;52.508;13.284;2022-11-20T01:06:10;13.10;;;9.30;;
12603;SDS011;6367;52.508;13.284;2022-11-20T01:08:49;12.53;;;9.33;;
12603;SDS011;6367;52.508;13.284;2022-11-20T01:11:17;11.83;;;8.70;;
12603;SDS011;6367;52.508;13.284;2022-11-20T01:13:52;12.90;;;9.37;;
12603;SDS011;6367;52.508;13.284;2022-11-20T01:16:22;13.40;;;9.53;;
12603;SDS011;6367;52.508;13.284;2022-11-20T01:18:51;11.50;;;8.77;;
12603;SDS011;6367;52.508;13.284;2022-11-20T01:21:19;16.83;;;10.33;;
12603;SDS011;6367;52.508;13.284;2022-11-20T01:23:49;13.50;;;9.30;;
12603;SDS011;6367;52.508;13.284;2022-11-20T01:26:17;12.40;;;9.90;;
12603;SDS011;6367;52.508;13.284;2022-11-20T01:28:44;13.20;;;10.30;;
12603;SDS011;6367;52.508;13.284;2022-11-20T01:31:14;11.03;;;8.83;;
12603;SDS011;6367;52.508;13.284;2022-11-20T01:33:40;13.77;;;10.03;;
12603;SDS011;6367;52.508;13.284;2022-11-20T01:36:07;13.77;;;10.37;;
12603;SDS011;6367;52.508;13.284;2022-11-20T01:38:33;13.07;;;9.67;;
12603;SDS011;6367;52.508;13.284;2022-11-20T01:40:59;11.90;;;9.40;;
12603;SDS011;6367;52.508;13.284;2022-11-20T01:43:24;14.10;;;10.30;;
12603;SDS011;6367;52.508;13.284;2022-11-20T01:48:50;13.70;;;9.80;;
12603;SDS011;6367;52.508;13.284;2022-11-20T01:51:33;12.47;;;9.90;;
12603;SDS011;6367;52.508;13.284;2022-11-20T01:54:05;12.70;;;10.20;;
12603;SDS011;6367;52.508;13.284;2022-11-20T01:56:34;12.60;;;9.90;;
12603;SDS011;6367;52.508;13.284;2022-11-20T01:59:03;11.33;;;9.87;;
12603;SDS011;6367;52.508;13.284;2022-11-20T02:01:31;12.97;;;9.57;;
12603;SDS011;6367;52.508;13.284;2022-11-20T02:03:58;13.43;;;9.97;;
12603;SDS011;6367;52.508;13.284;2022-11-20T02:06:27;12.10;;;9.47;;
12603;SDS011;6367;52.508;13.284;2022-11-20T02:08:56;14.50;;;9.23;;
12603;SDS011;6367;52.508;13.284;2022-11-20T02:11:22;13.60;;;11.43;;
12603;SDS011;6367;52.508;13.284;2022-11-20T02:13:48;12.60;;;10.27;;
12603;SDS011;6367;52.508;13.284;2022-11-20T02:16:24;13.70;;;10.60;;
12603;SDS011;6367;52.508;13.284;2022-11-20T02:18:53;14.90;;;11.87;;
12603;SDS011;6367;52.508;13.284;2022-11-20T02:26:38;14.47;;;11.43;;
12603;SDS011;6367;52.508;13.284;2022-11-20T02:29:11;13.13;;;10.23;;
12603;SDS011;6367;52.508;13.284;2022-11-20T02:31:38;13.03;;;10.20;;
12603;SDS011;6367;52.508;13.284;2022-11-20T02:34:07;15.30;;;11.10;;
12603;SDS011;6367;52.508;13.284;2022-11-20T02:36:33;13.47;;;10.50;;
12603;SDS011;6367;52.508;13.284;2022-11-20T02:39:02;14.17;;;10.47;;
12603;SDS011;6367;52.508;13.284;2022-11-20T02:41:35;13.00;;;10.10;;
12603;SDS011;6367;52.508;13.284;2022-11-20T02:44:02;14.60;;;11.50;;
12603;SDS011;6367;52.508;13.284;2022-11-20T02:46:28;14.50;;;10.43;;
12603;SDS011;6367;52.508;13.284;2022-11-20T02:48:55;18.13;;;11.47;;
12603;SDS011;6367;52.508;13.284;2022-11-20T02:51:21;14.53;;;10.87;;
12603;SDS011;6367;52.508;13.284;2022-11-20T02:53:47;14.60;;;11.37;;
12603;SDS011;6367;52.508;13.284;2022-11-20T02:56:12;14.13;;;10.70;;
12603;SDS011;6367;52.508;13.284;2022-11-20T02:58:38;15.63;;;10.97;;
12603;SDS011;6367;52.508;13.284;2022-11-20T03:01:04;17.30;;;11.73;;
12603;SDS011;6367;52.508;13.284;2022-11-20T03:03:29;15.40;;;11.87;;
12603;SDS011;6367;52.508;13.284;2022-11-20T03:05:55;15.93;;;11.17;;
12603;SDS011;6367;52.508;13.284;2022-11-20T03:08:23;14.50;;;11.47;;
12603;SDS011;6367;52.508;13.284;2022-11-20T03:10:48;16.07;;;12.23;;
12603;SDS011;6367;52.508;13.284;2022-11-20T03:13:14;17.60;;;11.30;;
12603;SDS011;6367;52.508;13.284;2022-11-20T03:15:39;14.60;;;11.57;;
12603;SDS011;6367;52.508;13.284;2022-11-20T03:18:05;15.00;;;11.27;;
12603;SDS011;6367;52.508;13.284;2022-11-20T03:20:32;14.70;;;11.87;;
12603;SDS011;6367;52.508;13.284;2022-11-20T03:22:58;17.50;;;12.43;;
12603;SDS011;6367;52.508;13.284;2022-11-20T03:25:24;14.93;;;10.57;;
12603;SDS011;6367;52.508;13.284;2022-11-20T03:27:50;13.53;;;10.50;;
12603;SDS011;6367;52.508;13.284;2022-11-20T03:30:16;19.83;;;12.83;;
12603;SDS011;6367;52.508;13.284;2022-11-20T03:32:41;18.50;;;12.03;;
12603;SDS011;6367;52.508;13.284;2022-11-20T03:35:07;16.77;;;11.80;;
12603;SDS011;6367;52.508;13.284;2022-11-20T03:37:33;18.57;;;12.63;;
12603;SDS011;6367;52.508;13.284;2022-11-20T03:39:59;13.57;;;11.37;;
12603;SDS011;6367;52.508;13.284;2022-11-20T03:42:24;15.83;;;12.27;;
12603;SDS011;6367;52.508;13.284;2022-11-20T03:45:09;15.30;;;11.10;;
12603;SDS011;6367;52.508;13.284;2022-11-20T03:47:34;14.57;;;11.80;;
12603;SDS011;6367;52.508;13.284;2022-11-20T03:50:00;16.90;;;11.90;;
12603;SDS011;6367;52.508;13.284;2022-11-20T03:52:25;18.10;;;12.90;;
12603;SDS011;6367;52.508;13.284;2022-11-20T03:54:51;13.10;;;10.50;;
12603;SDS011;6367;52.508;13.284;2022-11-20T03:57:17;14.77;;;12.43;;
12603;SDS011;6367;52.508;13.284;2022-11-20T03:59:42;15.40;;;11.57;;
12603;SDS011;6367;52.508;13.284;2022-11-20T04:02:08;15.17;;;11.60;;
12603;SDS011;6367;52.508;13.284;2022-11-20T04:04:33;18.13;;;12.63;;
12603;SDS011;6367;52.508;13.284;2022-11-20T04:06:59;17.53;;;12.90;;
12603;SDS011;6367;52.508;13.284;2022-11-20T04:09:25;19.10;;;12.97;;
12603;SDS011;6367;52.508;13.284;2022-11-20T04:11:50;14.47;;;11.43;;
12603;SDS011;6367;52.508;13.284;2022-11-20T04:14:16;13.80;;;10.90;;
12603;SDS011;6367;52.508;13.284;2022-11-20T04:16:42;16.60;;;11.53;;
12603;SDS011;6367;52.508;13.284;2022-11-20T04:19:12;17.37;;;12.33;;
12603;SDS011;6367;52.508;13.284;2022-11-20T04:21:39;18.87;;;13.23;;
12603;SDS011;6367;52.508;13.284;2022-11-20T04:24:05;16.37;;;11.60;;
12603;SDS011;6367;52.508;13.284;2022-11-20T04:26:32;15.60;;;12.00;;
12603;SDS011;6367;52.508;13.284;2022-11-20T04:28:58;16.07;;;11.77;;
12603;SDS011;6367;52.508;13.284;2022-11-20T04:31:25;15.17;;;12.07;;
12603;SDS011;6367;52.508;13.284;2022-11-20T04:33:52;15.70;;;11.87;;
12603;SDS011;6367;52.508;13.284;2022-11-20T04:36:19;15.77;;;11.40;;
12603;SDS011;6367;52.508;13.284;2022-11-20T04:38:50;16.73;;;11.87;;
12603;SDS011;6367;52.508;13.284;2022-11-20T04:41:18;18.60;;;12.27;;
12603;SDS011;6367;52.508;13.284;2022-11-20T04:43:47;16.17;;;11.90;;
12603;SDS011;6367;52.508;13.284;2022-11-20T04:46:14;15.90;;;12.10;;
12603;SDS011;6367;52.508;13.284;2022-11-20T04:48:41;17.00;;;12.27;;
12603;SDS011;6367;52.508;13.284;2022-11-20T04:51:06;17.07;;;12.00;;
12603;SDS011;6367;52.508;13.284;2022-11-20T04:53:32;15.63;;;12.00;;
12603;SDS011;6367;52.508;13.284;2022-11-20T04:56:02;16.23;;;12.20;;
12603;SDS011;6367;52.508;13.284;2022-11-20T04:58:29;17.60;;;14.03;;
12603;SDS011;6367;52.508;13.284;2022-11-20T05:01:04;16.67;;;11.90;;
12603;SDS011;6367;52.508;13.284;2022-11-20T05:03:38;18.43;;;12.90;;
12603;SDS011;6367;52.508;13.284;2022-11-20T05:06:08;15.40;;;11.53;;
12603;SDS011;6367;52.508;13.284;2022-11-20T05:08:35;18.03;;;13.00;;
12603;SDS011;6367;52.508;13.284;2022-11-20T05:11:02;18.83;;;13.17;;
12603;SDS011;6367;52.508;13.284;2022-11-20T05:13:38;16.77;;;13.50;;
12603;SDS011;6367;52.508;13.284;2022-11-20T05:16:05;18.47;;;13.03;;
12603;SDS011;6367;52.508;13.284;2022-11-20T05:18:35;17.50;;;12.03;;
12603;SDS011;6367;52.508;13.284;2022-11-20T05:21:02;19.93;;;12.67;;
12603;SDS011;6367;52.508;13.284;2022-11-20T05:23:29;15.57;;;11.47;;
12603;SDS011;6367;52.508;13.284;2022-11-20T05:25:55;16.53;;;11.60;;
12603;SDS011;6367;52.508;13.284;2022-11-20T05:28:23;16.47;;;11.80;;
12603;SDS011;6367;52.508;13.284;2022-11-20T05:30:49;17.20;;;11.80;;
12603;SDS011;6367;52.508;13.284;2022-11-20T05:33:15;18.30;;;12.60;;
12603;SDS011;6367;52.508;13.284;2022-11-20T05:35:42;15.87;;;12.20;;
12603;SDS011;6367;52.508;13.284;2022-11-20T05:38:07;15.50;;;11.77;;
12603;SDS011;6367;52.508;13.284;2022-11-20T05:40:33;17.07;;;11.83;;
12603;SDS011;6367;52.508;13.284;2022-11-20T05:42:59;13.37;;;10.67;;
12603;SDS011;6367;52.508;13.284;2022-11-20T05:45:25;17.70;;;12.17;;
12603;SDS011;6367;52.508;13.284;2022-11-20T05:47:50;16.13;;;12.43;;
12603;SDS011;6367;52.508;13.284;2022-11-20T05:50:16;19.33;;;12.33;;
12603;SDS011;6367;52.508;13.284;2022-11-20T05:52:42;16.97;;;11.80;;
12603;SDS011;6367;52.508;13.284;2022-11-20T05:55:07;14.97;;;11.13;;
12603;SDS011;6367;52.508;13.284;2022-11-20T05:57:33;16.90;;;11.87;;
12603;SDS011;6367;52.508;13.284;2022-11-20T05:59:59;17.90;;;13.73;;
12603;SDS011;6367;52.508;13.284;2022-11-20T06:02:25;16.50;;;11.70;;
12603;SDS011;6367;52.508;13.284;2022-11-20T06:04:50;16.63;;;11.37;;
12603;SDS011;6367;52.508;13.284;2022-11-20T06:07:16;23.73;;;13.40;;
12603;SDS011;6367;52.508;13.284;2022-11-20T06:09:42;16.23;;;12.00;;
12603;SDS011;6367;52.508;13.284;2022-11-20T06:12:07;17.63;;;12.27;;
12603;SDS011;6367;52.508;13.284;2022-11-20T06:14:33;14.70;;;11.50;;
12603;SDS011;6367;52.508;13.284;2022-11-20T06:16:59;17.70;;;12.03;;
12603;SDS011;6367;52.508;13.284;2022-11-20T06:19:25;14.47;;;11.33;;
12603;SDS011;6367;52.508;13.284;2022-11-20T06:21:50;17.70;;;12.23;;
12603;SDS011;6367;52.508;13.284;2022-11-20T06:24:16;15.80;;;12.67;;
12603;SDS011;6367;52.508;13.284;2022-11-20T06:26:42;16.10;;;12.10;;
12603;SDS011;6367;52.508;13.284;2022-11-20T06:29:08;14.20;;;11.30;;
12603;SDS011;6367;52.508;13.284;2022-11-20T06:31:34;15.17;;;12.63;;
12603;SDS011;6367;52.508;13.284;2022-11-20T06:34:02;20.70;;;13.20;;
12603;SDS011;6367;52.508;13.284;2022-11-20T06:36:29;15.93;;;12.47;;
12603;SDS011;6367;52.508;13.284;2022-11-20T06:38:55;18.43;;;12.70;;
12603;SDS011;6367;52.508;13.284;2022-11-20T06:41:21;15.83;;;11.87;;
12603;SDS011;6367;52.508;13.284;2022-11-20T06:43:47;16.63;;;12.00;;
12603;SDS011;6367;52.508;13.284;2022-11-20T06:46:13;17.20;;;12.87;;
12603;SDS011;6367;52.508;13.284;2022-11-20T06:48:42;16.33;;;12.30;;
12603;SDS011;6367;52.508;13.284;2022-11-20T06:51:08;19.30;;;12.60;;
12603;SDS011;6367;52.508;13.284;2022-11-20T06:53:34;18.30;;;13.90;;
12603;SDS011;6367;52.508;13.284;2022-11-20T06:56:00;15.30;;;11.73;;
12603;SDS011;6367;52.508;13.284;2022-11-20T06:58:27;15.07;;;12.10;;
12603;SDS011;6367;52.508;13.284;2022-11-20T07:00:57;16.00;;;12.20;;
12603;SDS011;6367;52.508;13.284;2022-11-20T07:03:24;17.70;;;12.90;;
12603;SDS011;6367;52.508;13.284;2022-11-20T07:05:49;17.90;;;12.50;;
12603;SDS011;6367;52.508;13.284;2022-11-20T07:08:15;14.20;;;12.33;;
12603;SDS011;6367;52.508;13.284;2022-11-20T07:10:40;16.33;;;12.27;;
12603;SDS011;6367;52.508;13.284;2022-11-20T07:13:06;16.43;;;11.40;;
12603;SDS011;6367;52.508;13.284;2022-11-20T07:15:32;18.07;;;13.70;;
12603;SDS011;6367;52.508;13.284;2022-11-20T07:18:00;16.97;;;13.43;;
12603;SDS011;6367;52.508;13.284;2022-11-20T07:20:26;19.77;;;14.10;;
12603;SDS011;6367;52.508;13.284;2022-11-20T07:22:53;19.43;;;12.73;;
12603;SDS011;6367;52.508;13.284;2022-11-20T07:25:19;15.73;;;12.67;;
12603;SDS011;6367;52.508;13.284;2022-11-20T07:27:45;15.40;;;12.40;;
12603;SDS011;6367;52.508;13.284;2022-11-20T07:30:11;19.13;;;14.03;;
12603;SDS011;6367;52.508;13.284;2022-11-20T07:32:37;18.30;;;13.67;;
12603;SDS011;6367;52.508;13.284;2022-11-20T07:35:03;19.27;;;13.60;;
12603;SDS011;6367;52.508;13.284;2022-11-20T07:37:28;18.83;;;13.10;;
12603;SDS011;6367;52.508;13.284;2022-11-20T07:39:54;19.23;;;12.13;;
12603;SDS011;6367;52.508;13.284;2022-11-20T07:42:20;19.20;;;14.30;;
12603;SDS011;6367;52.508;13.284;2022-11-20T07:44:45;18.20;;;13.50;;
12603;SDS011;6367;52.508;13.284;2022-11-20T07:47:11;20.20;;;14.10;;
12603;SDS011;6367;52.508;13.284;2022-11-20T07:49:36;20.17;;;13.67;;
12603;SDS011;6367;52.508;13.284;2022-11-20T07:52:02;20.60;;;13.30;;
12603;SDS011;6367;52.508;13.284;2022-11-20T07:54:28;18.63;;;13.13;;
12603;SDS011;6367;52.508;13.284;2022-11-20T07:56:53;17.13;;;14.13;;
12603;SDS011;6367;52.508;13.284;2022-11-20T07:59:19;15.60;;;12.20;;
12603;SDS011;6367;52.508;13.284;2022-11-20T08:01:45;16.63;;;13.53;;
12603;SDS011;6367;52.508;13.284;2022-11-20T08:04:10;19.73;;;13.33;;
12603;SDS011;6367;52.508;13.284;2022-11-20T08:06:36;19.50;;;12.90;;
12603;SDS011;6367;52.508;13.284;2022-11-20T08:09:02;16.30;;;12.23;;
12603;SDS011;6367;52.508;13.284;2022-11-20T08:11:28;18.30;;;13.20;;
12603;SDS011;6367;52.508;13.284;2022-11-20T08:14:12;19.40;;;13.43;;
12603;SDS011;6367;52.508;13.284;2022-11-20T08:16:42;18.30;;;12.97;;
12603;SDS011;6367;52.508;13.284;2022-11-20T08:19:09;17.30;;;13.17;;
12603;SDS011;6367;52.508;13.284;2022-11-20T08:21:35;19.30;;;13.67;;
12603;SDS011;6367;52.508;13.284;2022-11-20T08:24:01;18.63;;;13.13;;
12603;SDS011;6367;52.508;13.284;2022-11-20T08:26:26;18.90;;;13.97;;
12603;SDS011;6367;52.508;13.284;2022-11-20T08:28:55;20.50;;;13.90;;
12603;SDS011;6367;52.508;13.284;2022-11-20T08:31:22;17.20;;;12.77;;
12603;SDS011;6367;52.508;13.284;2022-11-20T08:33:49;20.93;;;13.60;;
12603;SDS011;6367;52.508;13.284;2022-11-20T08:36:15;15.80;;;11.60;;
12603;SDS011;6367;52.508;13.284;2022-11-20T08:38:41;18.00;;;13.10;;
12603;SDS011;6367;52.508;13.284;2022-11-20T08:41:07;18.50;;;13.80;;
12603;SDS011;6367;52.508;13.284;2022-11-20T08:46:20;18.20;;;13.50;;
12603;SDS011;6367;52.508;13.284;2022-11-20T08:48:46;18.57;;;13.13;;
12603;SDS011;6367;52.508;13.284;2022-11-20T08:51:12;17.60;;;11.67;;
12603;SDS011;6367;52.508;13.284;2022-11-20T08:53:39;19.30;;;13.87;;
12603;SDS011;6367;52.508;13.284;2022-11-20T08:56:05;17.20;;;13.23;;
12603;SDS011;6367;52.508;13.284;2022-11-20T08:58:31;17.77;;;12.20;;
12603;SDS011;6367;52.508;13.284;2022-11-20T09:00:56;18.00;;;12.53;;
12603;SDS011;6367;52.508;13.284;2022-11-20T09:03:22;16.37;;;12.73;;
12603;SDS011;6367;52.508;13.284;2022-11-20T09:05:48;18.30;;;13.27;;
12603;SDS011;6367;52.508;13.284;2022-11-20T09:08:13;19.70;;;13.77;;
12603;SDS011;6367;52.508;13.284;2022-11-20T09:10:39;16.43;;;12.43;;
12603;SDS011;6367;52.508;13.284;2022-11-20T09:13:05;20.00;;;13.57;;
12603;SDS011;6367;52.508;13.284;2022-11-20T09:15:31;16.73;;;11.70;;
12603;SDS011;6367;52.508;13.284;2022-11-20T09:17:58;18.73;;;12.30;;
12603;SDS011;6367;52.508;13.284;2022-11-20T09:20:26;16.40;;;12.23;;
12603;SDS011;6367;52.508;13.284;2022-11-20T09:22:54;20.00;;;13.83;;
12603;SDS011;6367;52.508;13.284;2022-11-20T09:25:19;18.53;;;12.57;;
12603;SDS011;6367;52.508;13.284;2022-11-20T09:27:45;17.67;;;12.67;;
12603;SDS011;6367;52.508;13.284;2022-11-20T09:30:12;16.43;;;12.60;;
12603;SDS011;6367;52.508;13.284;2022-11-20T09:32:39;18.03;;;12.73;;
12603;SDS011;6367;52.508;13.284;2022-11-20T09:35:05;18.70;;;13.30;;
12603;SDS011;6367;52.508;13.284;2022-11-20T09:37:31;18.67;;;13.47;;
12603;SDS011;6367;52.508;13.284;2022-11-20T09:39:56;19.23;;;13.20;;
12603;SDS011;6367;52.508;13.284;2022-11-20T09:45:02;17.80;;;13.17;;
12603;SDS011;6367;52.508;13.284;2022-11-20T09:56:34;20.17;;;13.83;;
12603;SDS011;6367;52.508;13.284;2022-11-20T09:59:04;20.00;;;14.50;;
12603;SDS011;6367;52.508;13.284;2022-11-20T10:01:34;20.37;;;15.10;;
12603;SDS011;6367;52.508;13.284;2022-11-20T10:06:37;20.03;;;12.77;;
12603;SDS011;6367;52.508;13.284;2022-11-20T10:15:06;19.13;;;12.40;;
12603;SDS011;6367;52.508;13.284;2022-11-20T10:20:40;17.80;;;12.93;;
12603;SDS011;6367;52.508;13.284;2022-11-20T10:26:03;17.23;;;12.23;;
12603;SDS011;6367;52.508;13.284;2022-11-20T10:31:51;18.10;;;13.17;;
12603;SDS011;6367;52.508;13.284;2022-11-20T10:34:20;17.00;;;13.10;;
12603;SDS011;6367;52.508;13.284;2022-11-20T10:36:55;17.70;;;12.40;;
12603;SDS011;6367;52.508;13.284;2022-11-20T10:39:26;17.50;;;12.90;;
12603;SDS011;6367;52.508;13.284;2022-11-20T10:42:03;19.13;;;12.17;;
12603;SDS011;6367;52.508;13.284;2022-11-20T10:44:35;16.67;;;12.37;;
12603;SDS011;6367;52.508;13.284;2022-11-20T10:47:22;18.77;;;11.90;;
12603;SDS011;6367;52.508;13.284;2022-11-20T10:49:49;17.80;;;13.33;;
12603;SDS011;6367;52.508;13.284;2022-11-20T11:00:35;17.80;;;12.67;;
12603;SDS011;6367;52.508;13.284;2022-11-20T11:03:00;18.30;;;12.30;;
12603;SDS011;6367;52.508;13.284;2022-11-20T11:08:19;13.40;;;10.93;;
12603;SDS011;6367;52.508;13.284;2022-11-20T11:10:53;16.33;;;11.57;;
12603;SDS011;6367;52.508;13.284;2022-11-20T11:13:23;12.73;;;11.33;;
12603;SDS011;6367;52.508;13.284;2022-11-20T11:15:50;14.07;;;10.97;;
12603;SDS011;6367;52.508;13.284;2022-11-20T11:18:27;15.43;;;11.90;;
12603;SDS011;6367;52.508;13.284;2022-11-20T11:20:57;14.10;;;10.57;;
12603;SDS011;6367;52.508;13.284;2022-11-20T11:26:02;13.67;;;10.80;;
12603;SDS011;6367;52.508;13.284;2022-11-20T11:28:30;13.63;;;10.53;;
12603;SDS011;6367;52.508;13.284;2022-11-20T11:30:56;14.27;;;10.10;;
12603;SDS011;6367;52.508;13.284;2022-11-20T11:33:29;14.00;;;10.30;;
12603;SDS011;6367;52.508;13.284;2022-11-20T11:35:59;11.47;;;9.77;;
12603;SDS011;6367;52.508;13.284;2022-11-20T11:38:30;12.90;;;9.67;;
12603;SDS011;6367;52.508;13.284;2022-11-20T11:41:05;11.00;;;9.40;;
12603;SDS011;6367;52.508;13.284;2022-11-20T11:43:35;11.83;;;8.70;;
12603;SDS011;6367;52.508;13.284;2022-11-20T11:48:55;11.57;;;9.87;;
12603;SDS011;6367;52.508;13.284;2022-11-20T11:51:24;11.60;;;9.03;;
12603;SDS011;6367;52.508;13.284;2022-11-20T11:53:55;10.97;;;8.97;;
12603;SDS011;6367;52.508;13.284;2022-11-20T11:56:23;10.47;;;8.87;;
12603;SDS011;6367;52.508;13.284;2022-11-20T11:58:52;10.70;;;8.53;;
12603;SDS011;6367;52.508;13.284;2022-11-20T12:06:37;13.33;;;9.60;;
12603;SDS011;6367;52.508;13.284;2022-11-20T12:09:10;11.37;;;9.23;;
12603;SDS011;6367;52.508;13.284;2022-11-20T12:14:34;11.50;;;8.80;;
12603;SDS011;6367;52.508;13.284;2022-11-20T12:17:07;11.20;;;8.93;;
12603;SDS011;6367;52.508;13.284;2022-11-20T12:19:36;14.03;;;8.73;;
12603;SDS011;6367;52.508;13.284;2022-11-20T12:24:55;9.70;;;7.63;;
12603;SDS011;6367;52.508;13.284;2022-11-20T12:30:17;9.83;;;7.37;;
12603;SDS011;6367;52.508;13.284;2022-11-20T12:38:20;10.90;;;7.40;;
12603;SDS011;6367;52.508;13.284;2022-11-20T12:43:29;14.90;;;7.83;;
12603;SDS011;6367;52.508;13.284;2022-11-20T12:57:24;9.20;;;7.17;;
12603;SDS011;6367;52.508;13.284;2022-11-20T13:00:08;10.70;;;7.40;;
12603;SDS011;6367;52.508;13.284;2022-11-20T13:05:50;11.00;;;8.30;;
12603;SDS011;6367;52.508;13.284;2022-11-20T13:08:41;9.63;;;7.37;;
12603;SDS011;6367;52.508;13.284;2022-11-20T13:14:16;10.67;;;7.97;;
12603;SDS011;6367;52.508;13.284;2022-11-20T13:19:31;11.00;;;8.97;;
12603;SDS011;6367;52.508;13.284;2022-11-20T13:21:57;9.87;;;8.30;;
12603;SDS011;6367;52.508;13.284;2022-11-20T13:24:24;9.63;;;8.50;;
12603;SDS011;6367;52.508;13.284;2022-11-20T13:29:33;12.70;;;8.67;;
12603;SDS011;6367;52.508;13.284;2022-11-20T13:35:00;12.07;;;9.17;;
12603;SDS011;6367;52.508;13.284;2022-11-20T13:37:32;11.50;;;8.20;;
12603;SDS011;6367;52.508;13.284;2022-11-20T13:42:37;9.77;;;7.77;;
12603;SDS011;6367;52.508;13.284;2022-11-20T13:45:09;9.70;;;7.60;;
12603;SDS011;6367;52.508;13.284;2022-11-20T13:47:47;13.33;;;7.63;;
12603;SDS011;6367;52.508;13.284;2022-11-20T13:50:14;10.07;;;7.77;;
12603;SDS011;6367;52.508;13.284;2022-11-20T13:52:47;9.97;;;7.60;;
12603;SDS011;6367;52.508;13.284;2022-11-20T14:00:33;7.97;;;6.73;;
12603;SDS011;6367;52.508;13.284;2022-11-20T14:03:13;10.43;;;7.10;;
12603;SDS011;6367;52.508;13.284;2022-11-20T14:05:53;11.57;;;7.23;;
12603;SDS011;6367;52.508;13.284;2022-11-20T14:08:26;10.67;;;7.43;;
12603;SDS011;6367;52.508;13.284;2022-11-20T14:11:12;9.77;;;6.70;;
12603;SDS011;6367;52.508;13.284;2022-11-20T14:13:38;10.20;;;7.20;;
12603;SDS011;6367;52.508;13.284;2022-11-20T14:16:04;10.67;;;7.90;;
12603;SDS011;6367;52.508;13.284;2022-11-20T14:18:30;12.40;;;8.27;;
12603;SDS011;6367;52.508;13.284;2022-11-20T14:20:55;10.00;;;7.70;;
12603;SDS011;6367;52.508;13.284;2022-11-20T14:23:25;12.33;;;8.00;;
12603;SDS011;6367;52.508;13.284;2022-11-20T14:25:52;8.90;;;7.63;;
12603;SDS011;6367;52.508;13.284;2022-11-20T14:28:24;11.53;;;8.67;;
12603;SDS011;6367;52.508;13.284;2022-11-20T14:30:54;10.60;;;7.60;;
12603;SDS011;6367;52.508;13.284;2022-11-20T14:33:21;9.03;;;7.73;;
12603;SDS011;6367;52.508;13.284;2022-11-20T14:35:51;10.20;;;7.40;;
12603;SDS011;6367;52.508;13.284;2022-11-20T14:38:21;11.50;;;7.97;;
12603;SDS011;6367;52.508;13.284;2022-11-20T14:40:50;11.13;;;8.10;;
12603;SDS011;6367;52.508;13.284;2022-11-20T14:43:23;12.40;;;8.13;;
12603;SDS011;6367;52.508;13.284;2022-11-20T14:46:00;11.10;;;8.97;;
12603;SDS011;6367;52.508;13.284;2022-11-20T14:48:37;12.93;;;8.47;;
12603;SDS011;6367;52.508;13.284;2022-11-20T14:51:10;10.63;;;8.60;;
12603;SDS011;6367;52.508;13.284;2022-11-20T14:53:36;11.40;;;8.53;;
12603;SDS011;6367;52.508;13.284;2022-11-20T14:56:03;9.83;;;8.23;;
12603;SDS011;6367;52.508;13.284;2022-11-20T14:58:29;12.10;;;8.93;;
12603;SDS011;6367;52.508;13.284;2022-11-20T15:01:03;11.37;;;8.23;;
12603;SDS011;6367;52.508;13.284;2022-11-20T15:03:37;11.40;;;8.33;;
12603;SDS011;6367;52.508;13.284;2022-11-20T15:06:09;8.67;;;7.57;;
12603;SDS011;6367;52.508;13.284;2022-11-20T15:08:36;11.30;;;8.03;;
12603;SDS011;6367;52.508;13.284;2022-11-20T15:11:02;11.73;;;8.43;;
12603;SDS011;6367;52.508;13.284;2022-11-20T15:15:58;8.10;;;6.90;;
12603;SDS011;6367;52.508;13.284;2022-11-20T15:18:29;12.40;;;9.23;;
12603;SDS011;6367;52.508;13.284;2022-11-20T15:20:58;10.30;;;8.10;;
12603;SDS011;6367;52.508;13.284;2022-11-20T15:23:27;10.43;;;8.47;;
12603;SDS011;6367;52.508;13.284;2022-11-20T15:25:53;10.60;;;8.37;;
12603;SDS011;6367;52.508;13.284;2022-11-20T15:31:02;10.73;;;8.50;;
12603;SDS011;6367;52.508;13.284;2022-11-20T15:33:29;10.23;;;8.50;;
12603;SDS011;6367;52.508;13.284;2022-11-20T15:35:55;12.07;;;8.53;;
12603;SDS011;6367;52.508;13.284;2022-11-20T15:38:21;11.90;;;8.50;;
12603;SDS011;6367;52.508;13.284;2022-11-20T15:40:47;13.53;;;8.30;;
12603;SDS011;6367;52.508;13.284;2022-11-20T15:43:12;13.37;;;9.07;;
12603;SDS011;6367;52.508;13.284;2022-11-20T15:45:39;13.27;;;9.30;;
12603;SDS011;6367;52.508;13.284;2022-11-20T15:48:35;12.50;;;8.50;;
12603;SDS011;6367;52.508;13.284;2022-11-20T15:53:34;13.63;;;9.80;;
12603;SDS011;6367;52.508;13.284;2022-11-20T15:56:00;10.17;;;8.33;;
12603;SDS011;6367;52.508;13.284;2022-11-20T15:58:26;14.27;;;9.80;;
12603;SDS011;6367;52.508;13.284;2022-11-20T16:00:52;10.10;;;8.30;;
12603;SDS011;6367;52.508;13.284;2022-11-20T16:03:18;12.47;;;9.70;;
12603;SDS011;6367;52.508;13.284;2022-11-20T16:05:44;14.10;;;9.60;;
12603;SDS011;6367;52.508;13.284;2022-11-20T16:08:10;11.57;;;8.23;;
12603;SDS011;6367;52.508;13.284;2022-11-20T16:10:36;11.30;;;8.87;;
12603;SDS011;6367;52.508;13.284;2022-11-20T16:13:02;13.43;;;9.00;;
12603;SDS011;6367;52.508;13.284;2022-11-20T16:15:50;12.50;;;9.80;;
12603;SDS011;6367;52.508;13.284;2022-11-20T16:18:18;13.33;;;9.73;;
12603;SDS011;6367;52.508;13.284;2022-11-20T16:20:47;12.07;;;9.10;;
12603;SDS011;6367;52.508;13.284;2022-11-20T16:23:14;11.10;;;8.17;;
12603;SDS011;6367;52.508;13.284;2022-11-20T16:25:41;11.00;;;8.83;;
12603;SDS011;6367;52.508;13.284;2022-11-20T16:28:07;9.20;;;7.70;;
12603;SDS011;6367;52.508;13.284;2022-11-20T16:30:33;9.30;;;7.50;;
12603;SDS011;6367;52.508;13.284;2022-11-20T16:33:00;9.50;;;7.63;;
12603;SDS011;6367;52.508;13.284;2022-11-20T16:35:27;10.27;;;7.90;;